createdAt,value
2019-04-11T00:01:08.015Z,63.98
2019-04-11T00:03:37.718Z,63.97
2019-04-11T00:06:07.788Z,63.68
2019-04-11T00:08:38.584Z,63.96
2019-04-11T00:11:09.348Z,63.96
2019-04-11T00:13:39.106Z,64.18
2019-04-11T00:16:08.841Z,64.21
2019-04-11T00:18:38.802Z,64.07
2019-04-11T00:21:08.774Z,64.50
2019-04-11T00:23:38.693Z,64.61
2019-04-11T00:26:08.683Z,64.66
2019-04-11T00:28:39.540Z,64.69
2019-04-11T00:31:09.093Z,64.09
2019-04-11T00:33:40.326Z,64.54
2019-04-11T00:36:10.296Z,64.69
2019-04-11T00:38:40.213Z,64.70
2019-04-11T00:41:09.984Z,64.75
2019-04-11T00:43:42.076Z,64.62
2019-04-11T00:46:09.914Z,64.64
2019-04-11T00:48:39.875Z,64.91
2019-04-11T00:51:09.932Z,65.05
2019-04-11T00:53:40.408Z,65.54
2019-04-11T00:56:10.883Z,65.89
2019-04-11T00:58:41.301Z,65.86
2019-04-11T01:01:11.331Z,66.20
2019-04-11T01:03:40.317Z,65.93
2019-04-11T01:06:10.716Z,65.95
2019-04-11T01:08:41.885Z,65.67
2019-04-11T01:11:11.914Z,65.93
2019-04-11T01:13:47.738Z,66.21
2019-04-11T01:16:11.235Z,65.84
2019-04-11T01:18:42.318Z,65.85
2019-04-11T01:21:12.307Z,66.31
2019-04-11T01:23:41.264Z,66.67
2019-04-11T01:26:11.323Z,66.05
2019-04-11T01:28:41.338Z,65.43
2019-04-11T01:31:11.662Z,66.00
2019-04-11T01:33:42.215Z,66.11
2019-04-11T01:36:12.682Z,66.18
2019-04-11T01:38:42.439Z,65.82
2019-04-11T01:43:56.284Z,66.67
2019-04-11T01:46:22.299Z,66.32
2019-04-11T01:48:52.154Z,66.34
2019-04-11T01:51:22.015Z,66.43
2019-04-11T01:53:52.072Z,66.51
2019-04-11T02:01:41.535Z,66.94
2019-04-11T02:04:11.960Z,67.00
2019-04-11T02:06:42.427Z,66.95
2019-04-11T02:09:11.653Z,66.45
2019-04-11T02:11:42.009Z,66.71
2019-04-11T02:14:16.221Z,67.18
2019-04-11T02:16:43.277Z,67.14
2019-04-11T02:21:52.420Z,67.81
2019-04-11T02:24:23.693Z,68.00
2019-04-11T02:26:52.761Z,67.91
2019-04-11T02:29:23.487Z,67.23
2019-04-11T02:31:52.969Z,68.10
2019-04-11T02:34:23.512Z,67.87
2019-04-11T02:36:54.197Z,67.81
2019-04-11T02:39:26.618Z,68.24
2019-04-11T02:41:54.917Z,68.28
2019-04-11T02:44:36.662Z,68.27
2019-04-11T02:47:04.525Z,68.38
2019-04-11T02:49:25.745Z,68.31
2019-04-11T02:51:55.755Z,68.24
2019-04-11T02:54:26.302Z,69.15
2019-04-11T02:56:54.908Z,68.78
2019-04-11T02:59:25.327Z,67.89
2019-04-11T03:01:55.782Z,69.16
2019-04-11T03:04:24.595Z,69.17
2019-04-11T03:06:55.365Z,68.94
2019-04-11T03:09:24.609Z,68.88
2019-04-11T03:11:55.260Z,69.15
2019-04-11T03:14:25.139Z,68.72
2019-04-11T03:17:02.414Z,68.69
2019-04-11T03:19:42.269Z,68.85
2019-04-11T03:21:56.572Z,69.05
2019-04-11T03:24:27.120Z,69.40
2019-04-11T03:26:57.987Z,69.43
2019-04-11T03:29:26.797Z,69.23
2019-04-11T03:32:40.171Z,69.06
2019-04-11T03:35:12.321Z,69.11
2019-04-11T03:39:44.195Z,69.58
2019-04-11T03:42:15.748Z,69.77
2019-04-11T03:44:33.894Z,69.62
2019-04-11T03:47:13.967Z,69.45
2019-04-11T03:49:36.603Z,69.30
2019-04-11T03:51:56.477Z,69.01
2019-04-11T03:54:26.479Z,69.52
2019-04-11T03:56:57.274Z,69.58
2019-04-11T03:59:27.030Z,69.53
2019-04-11T04:01:58.755Z,69.53
2019-04-11T04:04:28.338Z,69.58
2019-04-11T04:06:57.863Z,69.50
2019-04-11T04:09:29.131Z,69.77
2019-04-11T04:11:59.449Z,69.23
2019-04-11T04:14:28.518Z,68.75
2019-04-11T04:17:01.699Z,69.35
2019-04-11T04:19:30.666Z,69.06
2019-04-11T04:21:59.412Z,69.45
2019-04-11T04:24:32.095Z,69.23
2019-04-11T04:26:59.943Z,69.34
2019-04-11T04:29:29.408Z,69.09
2019-04-11T04:31:59.515Z,69.58
2019-04-11T04:34:28.640Z,69.62
2019-04-11T04:37:00.109Z,69.92
2019-04-11T04:39:29.928Z,69.88
2019-04-11T04:42:08.281Z,69.86
2019-04-11T04:44:29.781Z,69.72
2019-04-11T04:47:13.022Z,69.68
2019-04-11T04:49:30.056Z,70.62
2019-04-11T04:51:59.679Z,70.16
2019-04-11T04:54:30.772Z,70.03
2019-04-11T04:57:00.957Z,70.12
2019-04-11T05:02:10.952Z,70.17
2019-04-11T05:04:40.379Z,70.27
2019-04-11T05:07:09.705Z,70.14
2019-04-11T05:09:40.426Z,70.18
2019-04-11T05:12:09.889Z,70.25
2019-04-11T05:14:39.460Z,70.29
2019-04-11T05:17:10.511Z,70.01
2019-04-11T05:19:40.477Z,71.22
2019-04-11T05:22:10.550Z,71.15
2019-04-11T05:24:41.061Z,70.73
2019-04-11T05:27:10.756Z,70.30
2019-04-11T05:29:41.741Z,69.90
2019-04-11T05:32:11.414Z,70.52
2019-04-11T05:34:41.501Z,69.96
2019-04-11T05:37:11.799Z,69.97
2019-04-11T05:39:42.441Z,70.07
2019-04-11T05:42:15.975Z,69.16
2019-04-11T05:44:43.199Z,69.59
2019-04-11T05:47:18.223Z,69.97
2019-04-11T05:49:43.493Z,69.85
2019-04-11T05:52:12.484Z,69.34
2019-04-11T05:54:46.442Z,69.00
2019-04-11T05:57:13.280Z,68.97
2019-04-11T05:59:43.284Z,69.29
2019-04-11T06:02:13.056Z,69.52
2019-04-11T06:04:48.871Z,68.73
2019-04-11T06:07:13.160Z,68.75
2019-04-11T06:09:44.075Z,68.73
2019-04-11T06:12:13.659Z,69.05
2019-04-11T06:14:43.693Z,67.82
2019-04-11T06:17:14.798Z,67.90
2019-04-11T06:19:43.908Z,67.36
2019-04-11T06:22:14.887Z,67.26
2019-04-11T06:24:44.652Z,67.00
2019-04-11T06:27:15.394Z,67.19
2019-04-11T06:29:45.117Z,67.06
2019-04-11T06:32:14.239Z,66.85
2019-04-11T06:34:44.276Z,66.37
2019-04-11T06:37:14.303Z,65.43
2019-04-11T06:39:45.314Z,64.23
2019-04-11T06:42:15.000Z,64.30
2019-04-11T06:44:46.061Z,63.77
2019-04-11T06:47:15.045Z,64.02
2019-04-11T06:49:45.355Z,64.17
2019-04-11T06:52:15.385Z,63.05
2019-04-11T06:54:45.513Z,62.56
2019-04-11T06:57:15.990Z,61.93
2019-04-11T06:59:45.499Z,60.92
2019-04-11T07:02:19.567Z,61.20
2019-04-11T07:04:46.333Z,60.82
2019-04-11T07:07:16.367Z,59.95
2019-04-11T07:09:46.951Z,58.66
2019-04-11T07:12:15.944Z,57.80
2019-04-11T07:14:45.987Z,58.27
2019-04-11T07:17:16.013Z,57.57
2019-04-11T07:19:46.050Z,56.30
2019-04-11T07:22:16.083Z,55.75
2019-04-11T07:24:46.111Z,56.98
2019-04-11T07:27:16.490Z,55.51
2019-04-11T07:29:46.530Z,56.17
2019-04-11T07:32:17.853Z,54.13
2019-04-11T07:34:47.739Z,55.07
2019-04-11T07:37:16.835Z,53.71
2019-04-11T07:39:47.255Z,54.64
2019-04-11T07:42:18.222Z,52.91
2019-04-11T07:44:47.299Z,52.68
2019-04-11T07:47:21.681Z,53.47
2019-04-11T07:49:47.168Z,53.19
2019-04-11T07:52:17.636Z,53.71
2019-04-11T07:54:47.799Z,52.29
2019-04-11T07:57:17.628Z,52.23
2019-04-11T07:59:48.980Z,53.94
2019-04-11T08:02:18.165Z,51.97
2019-04-11T08:04:47.773Z,51.03
2019-04-11T08:07:17.792Z,51.60
2019-04-11T08:09:48.322Z,52.10
2019-04-11T08:12:18.069Z,50.66
2019-04-11T08:14:48.845Z,51.00
2019-04-11T08:17:28.111Z,52.00
2019-04-11T08:19:49.063Z,52.00
2019-04-11T08:22:19.010Z,50.43
2019-04-11T08:24:48.988Z,50.72
2019-04-11T08:27:19.651Z,49.82
2019-04-11T08:29:50.113Z,49.82
2019-04-11T08:32:18.523Z,50.51
2019-04-11T08:34:48.569Z,50.51
2019-04-11T08:37:19.340Z,48.96
2019-04-11T08:39:49.117Z,46.11
2019-04-11T08:42:19.116Z,44.46
2019-04-11T08:44:50.134Z,44.46
2019-04-11T08:47:20.307Z,45.56
2019-04-11T08:49:50.084Z,47.35
2019-04-11T08:52:20.953Z,47.38
2019-04-11T08:54:50.132Z,45.60
2019-04-11T08:57:20.046Z,44.61
2019-04-11T09:02:29.021Z,44.63
2019-04-11T09:05:07.024Z,45.17
2019-04-11T09:07:29.610Z,42.80
2019-04-11T09:09:59.771Z,41.86
2019-04-11T09:12:28.813Z,42.85
2019-04-11T09:14:58.751Z,43.29
2019-04-11T09:17:28.779Z,41.86
2019-04-11T09:19:59.018Z,42.21
2019-04-11T09:22:29.215Z,43.61
2019-04-11T09:24:59.222Z,43.61
2019-04-11T09:27:29.293Z,44.38
2019-04-11T09:29:59.306Z,44.28
2019-04-11T09:32:29.338Z,44.31
2019-04-11T09:34:59.812Z,44.47
2019-04-11T09:37:29.679Z,44.10
2019-04-11T09:39:59.737Z,44.13
2019-04-11T09:42:30.342Z,42.99
2019-04-11T09:44:59.799Z,41.60
2019-04-11T09:47:30.469Z,42.20
2019-04-11T09:50:00.231Z,42.48
2019-04-11T09:52:31.079Z,43.60
2019-04-11T09:55:00.919Z,42.43
2019-04-11T09:57:30.332Z,42.83
2019-04-11T10:00:01.747Z,41.01
2019-04-11T10:02:31.070Z,41.12
2019-04-11T10:05:02.616Z,43.43
2019-04-11T10:07:30.500Z,42.46
2019-04-11T10:10:00.542Z,43.06
2019-04-11T10:12:31.785Z,41.77
2019-04-11T10:15:00.677Z,42.61
2019-04-11T10:17:31.810Z,42.43
2019-04-11T10:20:00.683Z,43.42
2019-04-11T10:22:32.100Z,43.50
2019-04-11T10:25:01.428Z,42.39
2019-04-11T10:27:31.463Z,42.93
2019-04-11T10:30:01.512Z,42.45
2019-04-11T10:32:31.565Z,43.33
2019-04-11T10:35:01.889Z,41.89
2019-04-11T10:37:31.768Z,43.36
2019-04-11T10:40:01.954Z,41.93
2019-04-11T10:42:32.841Z,42.61
2019-04-11T10:45:02.751Z,41.82
2019-04-11T10:47:31.797Z,41.23
2019-04-11T10:50:03.041Z,41.51
2019-04-11T10:52:31.880Z,41.57
2019-04-11T10:55:03.032Z,41.63
2019-04-11T10:57:32.031Z,41.12
2019-04-11T11:00:03.060Z,39.87
2019-04-11T11:02:33.550Z,40.99
2019-04-11T11:05:03.187Z,41.61
2019-04-11T11:07:32.894Z,40.06
2019-04-11T11:10:03.184Z,40.93
2019-04-11T11:12:33.173Z,41.11
2019-04-11T11:15:05.183Z,41.58
2019-04-11T11:20:22.275Z,42.60
2019-04-11T11:22:44.383Z,40.77
2019-04-11T11:25:15.596Z,40.33
2019-04-11T11:27:43.722Z,41.14
2019-04-11T11:30:13.461Z,39.77
2019-04-11T11:32:43.509Z,40.45
2019-04-11T11:35:15.047Z,40.09
2019-04-11T11:37:45.093Z,40.81
2019-04-11T11:40:16.533Z,41.25
2019-04-11T11:42:44.113Z,41.63
2019-04-11T11:45:14.289Z,41.19
2019-04-11T11:47:44.888Z,40.76
2019-04-11T11:50:18.394Z,41.10
2019-04-11T11:52:45.477Z,40.80
2019-04-11T11:55:14.439Z,41.15
2019-04-11T11:57:44.891Z,41.91
2019-04-11T12:00:14.878Z,41.91
2019-04-11T12:02:44.543Z,41.86
2019-04-11T12:05:16.299Z,42.56
2019-04-11T12:07:45.188Z,42.07
2019-04-11T12:10:15.279Z,42.68
2019-04-11T12:12:44.673Z,43.33
2019-04-11T12:15:17.763Z,44.08
2019-04-11T12:17:44.930Z,43.68
2019-04-11T12:20:16.472Z,43.50
2019-04-11T12:22:44.800Z,42.86
2019-04-11T12:25:15.162Z,42.97
2019-04-11T12:27:45.764Z,42.26
2019-04-11T12:30:15.711Z,42.18
2019-04-11T12:32:46.630Z,41.91
2019-04-11T12:35:15.854Z,40.80
2019-04-11T12:37:50.511Z,42.27
2019-04-11T12:40:15.938Z,41.92
2019-04-11T12:42:46.000Z,41.00
2019-04-11T12:45:16.037Z,40.58
2019-04-11T12:47:46.417Z,40.09
2019-04-11T12:50:16.742Z,41.01
2019-04-11T12:52:46.786Z,41.11
2019-04-11T12:55:16.822Z,41.74
2019-04-11T12:57:46.878Z,40.49
2019-04-11T13:00:17.210Z,41.38
2019-04-11T13:02:47.244Z,41.52
2019-04-11T13:05:17.553Z,40.85
2019-04-11T13:07:47.587Z,41.03
2019-04-11T13:10:17.636Z,41.39
2019-04-11T13:12:47.671Z,39.96
2019-04-11T13:15:18.015Z,40.87
2019-04-11T13:17:48.061Z,42.21
2019-04-11T13:20:18.085Z,41.81
2019-04-11T13:22:48.129Z,40.73
2019-04-11T13:25:18.160Z,40.12
2019-04-11T13:27:48.197Z,41.05
2019-04-11T13:30:18.220Z,41.65
2019-04-11T13:32:48.274Z,41.26
2019-04-11T13:35:18.304Z,41.25
2019-04-11T13:37:48.352Z,41.28
2019-04-11T13:40:18.391Z,42.07
2019-04-11T13:42:48.431Z,42.55
2019-04-11T13:45:18.727Z,42.31
2019-04-11T13:47:49.038Z,42.14
2019-04-11T13:50:19.058Z,41.71
2019-04-11T13:52:49.110Z,42.84
2019-04-11T13:55:19.126Z,41.14
2019-04-11T13:57:49.532Z,42.36
2019-04-11T14:02:58.936Z,41.98
2019-04-11T14:05:28.954Z,42.54
2019-04-11T14:07:59.001Z,42.54
2019-04-11T14:10:31.529Z,43.46
2019-04-11T14:13:00.987Z,43.18
2019-04-11T14:15:29.576Z,42.35
2019-04-11T14:17:59.488Z,42.51
2019-04-11T14:20:30.355Z,43.35
2019-04-11T14:22:59.547Z,42.29
2019-04-11T14:25:29.580Z,43.61
2019-04-11T14:27:59.622Z,43.55
2019-04-11T14:30:29.643Z,43.68
2019-04-11T14:33:01.005Z,42.72
2019-04-11T14:35:29.701Z,42.87
2019-04-11T14:38:00.109Z,43.34
2019-04-11T14:40:30.421Z,43.00
2019-04-11T14:43:00.462Z,43.60
2019-04-11T14:45:30.762Z,43.93
2019-04-11T14:48:01.079Z,43.57
2019-04-11T14:50:40.405Z,43.66
2019-04-11T14:53:01.176Z,43.01
2019-04-11T14:55:31.195Z,43.52
2019-04-11T14:58:01.552Z,42.58
2019-04-11T15:00:31.870Z,43.55
2019-04-11T15:03:01.899Z,43.73
2019-04-11T15:05:31.916Z,43.53
2019-04-11T15:08:01.963Z,42.49
2019-04-11T15:10:31.987Z,42.70
2019-04-11T15:13:02.048Z,43.53
2019-04-11T15:15:32.048Z,44.82
2019-04-11T15:18:02.096Z,43.11
2019-04-11T15:20:34.091Z,43.22
2019-04-11T15:23:02.426Z,42.92
2019-04-11T15:25:32.448Z,42.87
2019-04-11T15:28:02.768Z,43.41
2019-04-11T15:30:33.081Z,44.06
2019-04-11T15:33:03.139Z,44.52
2019-04-11T15:35:33.522Z,44.51
2019-04-11T15:38:03.561Z,44.42
2019-04-11T15:40:33.581Z,44.37
2019-04-11T15:43:03.997Z,43.95
2019-04-11T15:45:34.274Z,44.98
2019-04-11T15:48:04.331Z,44.63
2019-04-11T15:50:34.638Z,44.10
2019-04-11T15:53:06.725Z,44.95
2019-04-11T15:55:37.550Z,43.94
2019-04-11T15:58:05.504Z,43.84
2019-04-11T16:00:35.524Z,43.91
2019-04-11T16:03:05.862Z,45.00
2019-04-11T16:05:36.204Z,44.55
2019-04-11T16:08:08.583Z,44.36
2019-04-11T16:10:36.439Z,44.38
2019-04-11T16:13:06.628Z,44.30
2019-04-11T16:15:36.650Z,43.46
2019-04-11T16:18:06.969Z,44.59
2019-04-11T16:20:36.979Z,45.27
2019-04-11T16:23:07.408Z,45.55
2019-04-11T16:25:37.445Z,45.04
2019-04-11T16:28:08.160Z,45.20
2019-04-11T16:30:39.710Z,45.62
2019-04-11T16:33:07.923Z,44.55
2019-04-11T16:35:37.945Z,44.71
2019-04-11T16:38:10.473Z,45.00
2019-04-11T16:40:38.354Z,45.01
2019-04-11T16:43:08.410Z,45.76
2019-04-11T16:45:38.439Z,45.40
2019-04-11T16:50:47.833Z,45.32
2019-04-11T16:53:18.140Z,44.76
2019-04-11T16:55:48.461Z,44.76
2019-04-11T16:58:19.628Z,45.17
2019-04-11T17:00:52.208Z,44.88
2019-04-11T17:03:19.233Z,44.47
2019-04-11T17:08:28.983Z,45.39
2019-04-11T17:10:59.003Z,46.10
2019-04-11T17:16:08.748Z,46.65
2019-04-11T17:18:39.066Z,45.83
2019-04-11T17:21:09.093Z,46.15
2019-04-11T17:23:39.412Z,46.71
2019-04-11T17:26:09.453Z,46.72
2019-04-11T17:28:39.486Z,48.04
2019-04-11T17:31:09.887Z,48.25
2019-04-11T17:33:39.931Z,48.56
2019-04-11T17:36:10.300Z,48.28
2019-04-11T17:38:40.346Z,48.57
2019-04-11T17:43:51.779Z,49.22
2019-04-11T17:46:20.041Z,49.10
2019-04-11T17:51:29.755Z,49.66
2019-04-11T17:54:01.422Z,49.99
2019-04-11T17:56:30.397Z,50.03
2019-04-11T17:59:00.446Z,49.86
2019-04-11T18:01:30.469Z,50.01
2019-04-11T18:04:00.852Z,50.30
2019-04-11T18:06:30.880Z,49.96
2019-04-11T18:09:00.937Z,50.26
2019-04-11T18:11:30.950Z,50.30
2019-04-11T18:14:01.559Z,49.96
2019-04-11T18:16:31.807Z,49.72
2019-04-11T18:19:05.774Z,49.72
2019-04-11T18:21:31.553Z,50.29
2019-04-11T18:24:01.613Z,50.31
2019-04-11T18:26:31.921Z,50.98
2019-04-11T18:31:47.610Z,50.38
2019-04-11T18:34:17.931Z,50.14
2019-04-11T18:36:47.959Z,48.94
2019-04-11T18:39:18.002Z,48.67
2019-04-11T18:41:48.028Z,49.85
2019-04-11T18:46:57.421Z,49.18
2019-04-11T18:49:27.716Z,49.40
2019-04-11T18:51:57.774Z,49.91
2019-04-11T18:54:27.806Z,49.18
2019-04-11T18:56:57.824Z,49.18
2019-04-11T18:59:28.127Z,49.02
2019-04-11T19:01:58.471Z,48.84
2019-04-11T19:04:32.510Z,49.21
2019-04-11T19:06:58.536Z,49.25
2019-04-11T19:09:28.587Z,49.25
2019-04-11T19:11:58.929Z,49.43
2019-04-11T19:17:08.318Z,49.57
2019-04-11T19:19:38.361Z,50.55
2019-04-11T19:24:48.045Z,51.25
2019-04-11T19:27:20.484Z,50.97
2019-04-11T19:29:48.554Z,50.94
2019-04-11T19:32:18.142Z,51.39
2019-04-11T19:34:48.192Z,52.31
2019-04-11T19:37:18.213Z,52.31
2019-04-11T19:39:48.539Z,52.56
2019-04-11T19:42:19.565Z,52.56
2019-04-11T19:44:49.705Z,52.68
2019-04-11T19:47:21.412Z,52.68
2019-04-11T19:49:48.935Z,51.65
2019-04-11T19:52:18.968Z,51.65
2019-04-11T19:54:49.030Z,51.46
2019-04-11T19:57:19.388Z,51.06
2019-04-11T19:59:49.788Z,51.81
2019-04-11T20:02:23.139Z,52.25
2019-04-11T20:04:50.144Z,52.52
2019-04-11T20:07:20.220Z,52.17
2019-04-11T20:12:30.074Z,51.49
2019-04-11T20:14:59.839Z,50.99
2019-04-11T20:17:30.147Z,51.13
2019-04-11T20:20:01.379Z,49.71
2019-04-11T20:22:30.235Z,49.39
2019-04-11T20:25:00.277Z,50.32
2019-04-11T20:27:30.624Z,51.25
2019-04-11T20:30:00.655Z,50.00
2019-04-11T20:32:33.033Z,50.04
2019-04-11T20:35:00.698Z,50.44
2019-04-11T20:37:39.214Z,49.78
2019-04-11T20:40:01.298Z,50.82
2019-04-11T20:42:31.320Z,50.49
2019-04-11T20:45:01.774Z,51.39
2019-04-11T20:47:31.790Z,50.88
2019-04-11T20:50:07.217Z,50.88
2019-04-11T20:52:31.835Z,51.09
2019-04-11T20:55:01.874Z,51.85
2019-04-11T20:57:31.899Z,50.77
2019-04-11T21:00:01.928Z,51.78
2019-04-11T21:02:32.136Z,52.66
2019-04-11T21:05:02.070Z,52.32
2019-04-11T21:07:32.566Z,52.50
2019-04-11T21:10:04.168Z,52.89
2019-04-11T21:12:32.437Z,52.89
2019-04-11T21:15:02.459Z,53.17
2019-04-11T21:17:32.600Z,53.05
2019-04-11T21:20:02.877Z,52.94
2019-04-11T21:22:32.942Z,52.69
2019-04-11T21:25:02.989Z,53.39
2019-04-11T21:27:32.999Z,54.09
2019-04-11T21:30:03.018Z,53.80
2019-04-11T21:32:33.063Z,53.82
2019-04-11T21:35:03.176Z,54.60
2019-04-11T21:37:33.165Z,54.54
2019-04-11T21:40:03.212Z,54.54
2019-04-11T21:42:35.891Z,54.79
2019-04-11T21:45:05.975Z,55.07
2019-04-11T21:47:36.902Z,55.30
2019-04-11T21:50:03.625Z,55.24
2019-04-11T21:52:33.666Z,55.08
2019-04-11T21:55:03.684Z,54.87
2019-04-11T22:02:55.217Z,54.12
2019-04-11T22:05:28.983Z,54.38
2019-04-11T22:10:35.211Z,55.01
2019-04-11T22:13:05.206Z,54.01
2019-04-11T22:15:35.584Z,55.29
2019-04-11T22:18:05.630Z,54.99
2019-04-11T22:20:36.011Z,55.12
2019-04-11T22:23:06.044Z,54.75
2019-04-11T22:25:36.090Z,55.63
2019-04-11T22:28:06.467Z,55.86
2019-04-11T22:30:36.483Z,56.26
2019-04-11T22:33:06.536Z,56.91
2019-04-11T22:35:36.546Z,57.30
2019-04-11T22:40:45.939Z,57.10
2019-04-11T22:43:24.045Z,57.30
2019-04-11T22:45:45.994Z,57.95
2019-04-11T22:50:55.401Z,58.08
2019-04-11T22:53:25.767Z,58.44
2019-04-11T22:55:55.791Z,58.51
2019-04-11T23:01:05.502Z,58.67
2019-04-11T23:03:35.562Z,58.78
2019-04-11T23:08:35.688Z,59.26
2019-04-11T23:11:05.727Z,59.47
2019-04-11T23:13:35.753Z,59.10
2019-04-11T23:16:05.773Z,58.83
2019-04-11T23:21:15.196Z,58.55
2019-04-11T23:23:45.232Z,59.17
2019-04-11T23:26:15.278Z,59.06
2019-04-11T23:28:46.730Z,59.79
2019-04-11T23:31:19.782Z,60.02
2019-04-11T23:33:46.091Z,59.91
2019-04-11T23:36:16.403Z,59.86
2019-04-11T23:38:46.732Z,59.57
2019-04-11T23:41:19.604Z,59.46
2019-04-11T23:43:49.781Z,60.03
2019-04-11T23:46:18.963Z,59.68
2019-04-11T23:48:47.619Z,60.68
2019-04-11T23:51:17.667Z,60.32
2019-04-11T23:53:47.737Z,60.18
2019-04-11T23:56:17.772Z,60.20
2019-04-11T23:58:48.095Z,60.40
